Time;durP1;ratioP1;P1;durP2;ratioP2;P2;SDS_P1;SDS_P2;PMS_P1;PMS_P2;Temp;Humidity;BMP_temperature;BMP_pressure;BME280_temperature;BME280_humidity;BME280_pressure;Samples;Min_cycle;Max_cycle;Signal;HPM_P1;HPM_P2
2021/05/05 00:01:27;;;;;;;6.65;3.95;;;8.80;99.90;;;;;;5029815;28;20048;-48
2021/05/05 00:03:52;;;;;;;5.90;4.18;;;8.80;99.90;;;;;;5029422;28;20117;-44
2021/05/05 00:06:18;;;;;;;5.65;4.25;;;8.80;99.90;;;;;;5029786;28;20029;-43
2021/05/05 00:08:44;;;;;;;5.25;3.53;;;8.90;99.90;;;;;;5027875;28;20064;-44
2021/05/05 00:11:10;;;;;;;7.60;3.55;;;8.90;99.90;;;;;;5029947;28;20071;-44
2021/05/05 00:13:36;;;;;;;4.85;4.22;;;8.90;99.90;;;;;;5029531;28;20046;-45
2021/05/05 00:16:02;;;;;;;6.97;4.57;;;8.80;99.90;;;;;;5030063;28;20033;-45
2021/05/05 00:18:29;;;;;;;5.13;3.90;;;8.90;99.90;;;;;;5028789;28;20021;-44
2021/05/05 00:20:54;;;;;;;5.50;4.00;;;8.90;99.90;;;;;;5029789;28;20090;-45
2021/05/05 00:23:20;;;;;;;5.00;3.50;;;8.90;99.90;;;;;;5029590;28;20210;-45
2021/05/05 00:25:45;;;;;;;6.65;4.00;;;9.00;99.90;;;;;;5029428;28;20029;-44
2021/05/05 00:28:11;;;;;;;4.45;3.28;;;9.00;99.90;;;;;;5028769;28;20029;-44
2021/05/05 00:30:37;;;;;;;3.97;3.17;;;8.90;99.90;;;;;;5027375;28;20033;-44
2021/05/05 00:33:02;;;;;;;5.50;3.53;;;9.00;99.90;;;;;;5028739;28;20029;-45
2021/05/05 00:35:28;;;;;;;4.85;3.92;;;9.00;99.90;;;;;;5028980;28;20487;-44
2021/05/05 00:37:53;;;;;;;11.10;3.42;;;8.90;99.90;;;;;;5028508;28;20022;-45
2021/05/05 00:40:19;;;;;;;3.50;2.90;;;8.90;99.90;;;;;;5028712;28;20060;-43
2021/05/05 00:42:44;;;;;;;6.65;3.60;;;8.90;99.90;;;;;;5029096;28;20537;-46
2021/05/05 00:45:14;;;;;;;3.70;3.25;;;8.90;99.90;;;;;;5029070;28;20037;-44
2021/05/05 00:47:41;;;;;;;5.22;3.17;;;8.90;99.90;;;;;;5028416;28;20026;-45
2021/05/05 00:50:09;;;;;;;4.82;3.45;;;8.90;99.90;;;;;;5028967;28;20060;-44
2021/05/05 00:52:34;;;;;;;4.20;2.90;;;8.90;99.90;;;;;;5029282;28;20037;-44
2021/05/05 00:55:00;;;;;;;4.35;3.20;;;8.90;99.90;;;;;;5029069;28;20368;-44
2021/05/05 00:57:27;;;;;;;5.57;2.45;;;9.00;99.90;;;;;;5028397;28;20072;-44
2021/05/05 00:59:53;;;;;;;5.47;2.85;;;9.00;99.90;;;;;;5028778;28;20479;-44
2021/05/05 01:02:19;;;;;;;6.05;3.42;;;9.00;99.90;;;;;;5027714;28;20044;-43
2021/05/05 01:04:45;;;;;;;2.90;2.60;;;9.10;99.90;;;;;;5028537;28;20064;-43
2021/05/05 01:07:11;;;;;;;2.20;2.00;;;9.00;99.90;;;;;;5027346;28;20036;-48
2021/05/05 01:09:40;;;;;;;3.53;2.40;;;9.00;99.90;;;;;;5028298;28;20083;-45
2021/05/05 01:12:06;;;;;;;3.75;2.17;;;8.90;99.90;;;;;;5028574;28;20029;-45
2021/05/05 01:14:31;;;;;;;3.13;2.33;;;8.90;99.90;;;;;;5028523;28;20442;-44
2021/05/05 01:16:57;;;;;;;4.40;2.50;;;8.90;99.90;;;;;;5028629;28;20022;-44
2021/05/05 01:19:22;;;;;;;2.78;1.92;;;8.80;99.90;;;;;;5027738;28;20018;-45
2021/05/05 01:21:49;;;;;;;2.47;1.92;;;8.90;99.90;;;;;;5028557;28;20036;-45
2021/05/05 01:24:14;;;;;;;2.97;2.17;;;8.90;99.90;;;;;;5028658;28;20033;-44
2021/05/05 01:26:40;;;;;;;5.75;2.28;;;8.90;99.90;;;;;;5028376;28;20434;-44
2021/05/05 01:29:08;;;;;;;6.25;2.60;;;8.90;99.90;;;;;;5027863;28;20025;-45
2021/05/05 01:31:34;;;;;;;4.90;2.40;;;8.90;99.90;;;;;;5028226;28;20026;-44
2021/05/05 01:34:00;;;;;;;5.10;2.50;;;8.80;99.90;;;;;;5028401;28;20043;-45
2021/05/05 01:36:31;;;;;;;4.22;1.88;;;8.80;99.90;;;;;;5026799;28;20030;-44
2021/05/05 01:38:56;;;;;;;3.75;2.25;;;8.70;99.90;;;;;;5028018;28;20049;-44
2021/05/05 01:41:23;;;;;;;2.70;2.20;;;8.70;99.90;;;;;;5024349;28;20065;-44
2021/05/05 01:43:49;;;;;;;4.22;2.15;;;8.70;99.90;;;;;;5029114;28;20475;-45
2021/05/05 01:46:18;;;;;;;5.43;2.38;;;8.80;99.90;;;;;;5031935;28;20030;-44
2021/05/05 01:48:44;;;;;;;3.70;2.38;;;8.80;99.90;;;;;;5028762;28;20079;-45
2021/05/05 01:51:09;;;;;;;2.25;2.05;;;8.70;99.90;;;;;;5031951;28;20049;-43
2021/05/05 01:53:35;;;;;;;4.32;2.30;;;8.60;99.90;;;;;;5032313;28;20039;-44
2021/05/05 01:56:01;;;;;;;2.47;1.92;;;8.70;99.90;;;;;;5032043;28;20063;-44
2021/05/05 01:58:26;;;;;;;11.10;3.58;;;8.70;99.90;;;;;;5031538;28;20028;-46
2021/05/05 02:00:52;;;;;;;2.55;1.98;;;8.70;99.90;;;;;;5029061;28;20029;-45
2021/05/05 02:03:17;;;;;;;5.22;2.38;;;8.70;99.90;;;;;;5031835;28;20466;-44
2021/05/05 02:05:43;;;;;;;5.35;2.30;;;8.70;99.90;;;;;;5031703;28;20029;-44
2021/05/05 02:08:09;;;;;;;2.85;2.35;;;8.70;99.90;;;;;;5031018;28;20399;-44
2021/05/05 02:10:35;;;;;;;2.50;2.30;;;8.70;99.90;;;;;;5031584;28;20457;-44
2021/05/05 02:13:00;;;;;;;3.58;2.53;;;8.60;99.90;;;;;;5031421;28;20106;-44
2021/05/05 02:15:26;;;;;;;4.43;2.58;;;8.60;99.90;;;;;;5031702;28;20071;-43
2021/05/05 02:17:52;;;;;;;4.40;2.70;;;8.70;99.90;;;;;;5030989;28;20021;-43
2021/05/05 02:20:22;;;;;;;7.20;2.90;;;8.70;99.90;;;;;;5031520;28;20079;-43
2021/05/05 02:22:49;;;;;;;4.45;3.38;;;8.60;99.90;;;;;;5031575;28;20044;-44
2021/05/05 02:25:15;;;;;;;5.40;2.78;;;8.60;99.90;;;;;;5029069;28;20164;-45
2021/05/05 02:27:43;;;;;;;3.42;2.58;;;8.50;99.90;;;;;;5028670;28;20222;-43
2021/05/05 02:30:11;;;;;;;5.28;3.08;;;8.50;99.90;;;;;;5029772;28;20060;-43
2021/05/05 02:32:38;;;;;;;2.97;2.58;;;8.50;99.90;;;;;;5031150;28;20445;-45
2021/05/05 02:35:05;;;;;;;3.95;3.50;;;8.40;99.90;;;;;;5030702;28;20074;-43
2021/05/05 02:37:31;;;;;;;5.38;2.92;;;8.40;99.90;;;;;;5030433;28;20554;-44
2021/05/05 02:39:57;;;;;;;7.07;3.58;;;8.40;99.90;;;;;;5031446;28;20201;-44
2021/05/05 02:42:22;;;;;;;4.85;3.58;;;8.40;99.90;;;;;;5031460;28;20120;-43
2021/05/05 02:44:49;;;;;;;5.35;3.50;;;8.30;99.90;;;;;;5031496;28;20025;-45
2021/05/05 02:47:17;;;;;;;8.43;3.72;;;8.30;99.90;;;;;;5030510;28;20459;-44
2021/05/05 02:49:43;;;;;;;4.70;3.22;;;8.30;99.90;;;;;;5030414;28;20025;-44
2021/05/05 02:52:09;;;;;;;6.65;3.40;;;8.30;99.90;;;;;;5030724;28;20518;-44
2021/05/05 02:54:35;;;;;;;8.32;3.35;;;8.30;99.90;;;;;;5031200;28;20116;-43
2021/05/05 02:57:01;;;;;;;4.38;3.08;;;8.30;99.90;;;;;;5030630;28;20028;-44
2021/05/05 02:59:27;;;;;;;5.35;3.47;;;8.30;99.90;;;;;;5030549;28;20029;-44
2021/05/05 03:01:54;;;;;;;5.15;3.75;;;8.30;99.90;;;;;;5031189;28;20025;-44
2021/05/05 03:04:19;;;;;;;5.40;3.15;;;8.20;99.90;;;;;;5030826;28;20028;-44
2021/05/05 03:06:45;;;;;;;3.67;3.08;;;8.20;99.90;;;;;;5030896;28;20394;-44
2021/05/05 03:09:12;;;;;;;5.65;3.05;;;8.10;99.90;;;;;;5030338;28;20033;-44
2021/05/05 03:11:37;;;;;;;3.35;3.03;;;8.10;99.90;;;;;;5031056;28;20117;-44
2021/05/05 03:14:03;;;;;;;8.52;3.72;;;8.20;99.90;;;;;;5031173;28;20100;-44
2021/05/05 03:16:29;;;;;;;4.05;3.35;;;8.20;99.90;;;;;;5030836;28;20040;-46
2021/05/05 03:18:55;;;;;;;4.55;3.50;;;8.10;99.90;;;;;;5029874;28;20036;-44
2021/05/05 03:21:21;;;;;;;6.78;3.78;;;8.10;99.90;;;;;;5029567;28;20025;-44
2021/05/05 03:23:47;;;;;;;6.22;3.03;;;8.10;99.90;;;;;;5030442;28;20025;-44
2021/05/05 03:26:12;;;;;;;4.15;3.67;;;8.20;99.90;;;;;;5030548;28;20029;-44
2021/05/05 03:28:38;;;;;;;4.05;3.65;;;8.10;99.90;;;;;;5028275;28;20033;-43
2021/05/05 03:31:03;;;;;;;5.53;3.83;;;8.20;99.90;;;;;;5030392;28;20132;-44
2021/05/05 03:33:29;;;;;;;6.82;4.50;;;8.20;99.90;;;;;;5030469;28;20483;-43
2021/05/05 03:35:54;;;;;;;7.90;4.00;;;8.00;99.90;;;;;;5030268;28;20286;-43
2021/05/05 03:38:20;;;;;;;5.35;4.05;;;8.00;99.90;;;;;;5029915;28;20109;-43
2021/05/05 03:40:46;;;;;;;7.50;3.90;;;8.00;99.90;;;;;;5030716;28;20038;-44
2021/05/05 03:43:11;;;;;;;5.13;3.83;;;8.00;99.90;;;;;;5030460;28;20021;-43
2021/05/05 03:45:37;;;;;;;4.95;3.55;;;8.10;99.90;;;;;;5029131;28;20021;-44
2021/05/05 03:48:03;;;;;;;5.78;4.13;;;8.00;99.90;;;;;;5029615;28;20508;-44
2021/05/05 03:50:28;;;;;;;5.53;3.92;;;8.00;99.90;;;;;;5028555;28;20036;-44
2021/05/05 03:52:54;;;;;;;10.07;4.13;;;8.00;99.90;;;;;;5029972;28;20034;-45
2021/05/05 03:55:20;;;;;;;6.05;4.13;;;8.00;99.90;;;;;;5029973;28;20116;-44
2021/05/05 03:57:46;;;;;;;5.95;4.68;;;8.00;99.90;;;;;;5029458;28;20025;-43
2021/05/05 04:00:12;;;;;;;5.53;4.13;;;7.90;99.90;;;;;;5029963;28;20132;-43
2021/05/05 04:02:37;;;;;;;6.35;4.65;;;8.00;99.90;;;;;;5029847;28;20017;-43
2021/05/05 04:05:04;;;;;;;4.25;3.55;;;8.00;99.90;;;;;;5029833;28;20100;-43
2021/05/05 04:07:29;;;;;;;7.00;5.22;;;8.00;99.90;;;;;;5026852;28;20040;-43
2021/05/05 04:09:56;;;;;;;5.05;4.63;;;8.00;99.90;;;;;;5029979;28;20222;-43
2021/05/05 04:12:22;;;;;;;5.63;4.20;;;8.00;99.90;;;;;;5029781;28;20032;-45
2021/05/05 04:14:48;;;;;;;8.57;4.45;;;8.00;99.90;;;;;;5029776;28;20025;-44
2021/05/05 04:17:13;;;;;;;8.13;4.22;;;7.90;99.90;;;;;;5030042;28;20045;-44
2021/05/05 04:19:40;;;;;;;5.82;4.03;;;7.90;99.90;;;;;;5029129;28;20068;-46
2021/05/05 04:22:05;;;;;;;4.93;3.97;;;7.90;99.90;;;;;;5029832;28;20112;-44
2021/05/05 04:24:31;;;;;;;4.60;3.83;;;8.00;99.90;;;;;;5029867;28;20105;-44
2021/05/05 04:26:58;;;;;;;4.88;4.20;;;8.00;99.90;;;;;;5030047;28;20025;-45
2021/05/05 04:29:24;;;;;;;4.68;3.88;;;8.00;99.90;;;;;;5029117;28;20026;-45
2021/05/05 04:31:53;;;;;;;7.93;4.53;;;8.00;99.90;;;;;;5028361;28;20087;-44
2021/05/05 04:34:20;;;;;;;7.43;4.38;;;8.00;99.90;;;;;;5029326;28;20017;-43
2021/05/05 04:36:46;;;;;;;7.63;4.25;;;7.90;99.90;;;;;;5029387;28;20104;-43
2021/05/05 04:39:12;;;;;;;7.22;3.83;;;7.90;99.90;;;;;;5028787;28;20555;-43
2021/05/05 04:41:37;;;;;;;6.72;3.70;;;7.90;99.90;;;;;;5027346;28;20332;-44
2021/05/05 04:44:03;;;;;;;5.35;3.50;;;7.90;99.90;;;;;;5028410;28;20490;-44
2021/05/05 04:46:29;;;;;;;9.32;3.65;;;8.00;99.90;;;;;;5028481;28;20530;-44
2021/05/05 04:48:55;;;;;;;8.80;4.20;;;7.90;99.90;;;;;;5027421;28;20129;-44
2021/05/05 04:51:21;;;;;;;7.40;4.10;;;8.00;99.90;;;;;;5028530;28;20017;-43
2021/05/05 04:53:46;;;;;;;5.82;3.92;;;8.00;99.90;;;;;;5028539;28;20052;-43
2021/05/05 04:56:11;;;;;;;6.72;3.95;;;8.10;99.90;;;;;;5027127;28;20029;-44
2021/05/05 04:58:37;;;;;;;6.25;3.80;;;8.00;99.90;;;;;;5027660;28;20030;-43
2021/05/05 05:01:04;;;;;;;6.53;3.90;;;8.10;99.90;;;;;;5024695;28;20024;-44
2021/05/05 05:03:29;;;;;;;4.03;3.40;;;8.10;99.90;;;;;;5027941;28;20152;-45
2021/05/05 05:05:55;;;;;;;9.48;4.00;;;8.00;99.90;;;;;;5027465;28;20104;-44
2021/05/05 05:08:20;;;;;;;7.68;3.92;;;8.00;99.90;;;;;;5027950;28;20021;-44
2021/05/05 05:10:46;;;;;;;6.03;3.55;;;8.00;99.90;;;;;;5027395;28;20462;-45
2021/05/05 05:13:12;;;;;;;5.85;3.50;;;8.10;99.90;;;;;;5027257;28;20037;-44
2021/05/05 05:15:37;;;;;;;6.30;3.92;;;7.90;99.90;;;;;;5026325;28;20033;-44
2021/05/05 05:18:03;;;;;;;6.32;3.50;;;8.00;99.90;;;;;;5026540;28;20060;-44
2021/05/05 05:20:28;;;;;;;5.40;3.20;;;7.90;99.90;;;;;;5026992;28;20092;-45
2021/05/05 05:22:57;;;;;;;4.07;3.33;;;7.80;99.90;;;;;;5027474;28;20368;-44
2021/05/05 05:25:25;;;;;;;9.80;3.78;;;7.70;99.90;;;;;;5028026;28;20061;-44
2021/05/05 05:27:52;;;;;;;6.60;4.00;;;7.60;99.90;;;;;;5027629;28;20018;-44
2021/05/05 05:30:19;;;;;;;5.10;4.00;;;7.70;99.90;;;;;;5026868;28;20025;-44
2021/05/05 05:32:45;;;;;;;9.00;4.78;;;7.70;99.90;;;;;;5028087;28;20043;-45
2021/05/05 05:35:11;;;;;;;7.15;4.93;;;7.80;99.90;;;;;;5027979;28;20022;-44
2021/05/05 05:37:37;;;;;;;9.35;4.63;;;7.90;99.90;;;;;;5027831;28;20268;-43
2021/05/05 05:40:04;;;;;;;7.28;4.95;;;8.00;99.90;;;;;;5027381;28;20026;-44
2021/05/05 05:42:29;;;;;;;7.30;4.80;;;8.00;99.90;;;;;;5028389;28;20430;-43
2021/05/05 05:44:55;;;;;;;5.60;4.10;;;8.00;99.90;;;;;;5028285;28;20037;-47
2021/05/05 05:47:21;;;;;;;8.50;5.10;;;8.00;99.90;;;;;;5027865;28;20025;-42
2021/05/05 05:49:46;;;;;;;11.35;4.95;;;7.90;99.90;;;;;;5027824;28;20044;-44
2021/05/05 05:52:12;;;;;;;7.68;4.65;;;7.90;99.90;;;;;;5028490;28;20053;-44
2021/05/05 05:54:37;;;;;;;6.50;4.47;;;7.80;99.90;;;;;;5028481;28;20429;-44
2021/05/05 05:57:03;;;;;;;8.15;3.90;;;7.80;99.90;;;;;;5028519;28;20021;-44
2021/05/05 05:59:28;;;;;;;7.35;4.57;;;7.90;99.90;;;;;;5027635;28;20057;-44
2021/05/05 06:01:54;;;;;;;7.28;4.07;;;8.00;99.90;;;;;;5013987;28;20037;-46
2021/05/05 06:04:20;;;;;;;8.13;3.90;;;7.90;99.90;;;;;;5008277;28;20034;-46
2021/05/05 06:06:46;;;;;;;6.03;3.92;;;8.00;99.90;;;;;;5008797;28;20036;-44
2021/05/05 06:09:12;;;;;;;4.82;3.50;;;8.10;99.90;;;;;;5008227;28;20033;-45
2021/05/05 06:11:37;;;;;;;9.35;3.75;;;8.30;99.90;;;;;;5008471;28;20463;-44
2021/05/05 06:14:04;;;;;;;7.35;3.25;;;8.40;99.90;;;;;;5008403;28;20099;-45
2021/05/05 06:16:30;;;;;;;8.45;3.70;;;8.50;99.90;;;;;;5008015;28;20041;-46
2021/05/05 06:18:55;;;;;;;6.43;3.08;;;8.50;99.90;;;;;;5007907;28;20029;-44
2021/05/05 06:21:22;;;;;;;5.95;3.22;;;8.70;99.90;;;;;;5008213;28;20033;-44
2021/05/05 06:23:47;;;;;;;7.72;3.20;;;8.80;99.90;;;;;;5021938;28;20092;-44
2021/05/05 06:26:13;;;;;;;7.35;3.25;;;8.60;99.90;;;;;;5028015;28;20064;-44
2021/05/05 06:28:38;;;;;;;4.85;2.67;;;8.50;99.90;;;;;;5027309;28;20434;-44
2021/05/05 06:31:03;;;;;;;5.20;2.53;;;8.40;99.90;;;;;;5029171;28;20040;-45
2021/05/05 06:33:29;;;;;;;5.35;2.25;;;8.30;99.90;;;;;;5030736;28;20037;-47
2021/05/05 06:35:56;;;;;;;4.05;2.22;;;8.10;99.90;;;;;;5030799;28;20030;-44
2021/05/05 06:38:21;;;;;;;4.13;2.60;;;7.70;99.90;;;;;;5030522;28;20049;-44
2021/05/05 06:40:47;;;;;;;4.15;3.30;;;7.80;99.90;;;;;;5031059;28;20096;-44
2021/05/05 06:43:12;;;;;;;3.50;2.97;;;7.60;99.90;;;;;;5030952;28;20021;-44
2021/05/05 06:45:38;;;;;;;8.50;3.80;;;7.60;99.90;;;;;;5029716;28;20125;-45
2021/05/05 06:48:04;;;;;;;5.00;3.05;;;7.70;99.90;;;;;;5030213;28;20021;-43
2021/05/05 06:50:29;;;;;;;4.28;2.92;;;7.90;99.90;;;;;;5029184;28;20029;-44
2021/05/05 06:52:56;;;;;;;6.95;2.90;;;7.90;99.90;;;;;;5031175;28;20399;-44
2021/05/05 06:55:23;;;;;;;4.07;2.50;;;8.10;99.90;;;;;;5030945;28;20267;-44
2021/05/05 06:57:50;;;;;;;6.25;2.88;;;8.30;99.90;;;;;;5027601;28;20014;-45
2021/05/05 07:00:16;;;;;;;8.10;2.85;;;8.60;99.90;;;;;;5030734;28;20022;-46
2021/05/05 07:02:41;;;;;;;7.45;3.05;;;8.50;99.90;;;;;;5028684;28;20204;-44
2021/05/05 07:05:09;;;;;;;6.30;3.42;;;8.80;99.90;;;;;;5030323;28;20071;-44
2021/05/05 07:07:34;;;;;;;5.07;2.90;;;8.80;99.90;;;;;;5030558;28;20034;-45
2021/05/05 07:09:59;;;;;;;5.57;2.53;;;9.00;99.90;;;;;;5030974;28;20084;-46
2021/05/05 07:12:25;;;;;;;6.13;2.88;;;9.10;99.90;;;;;;5030780;28;20033;-45
2021/05/05 07:14:51;;;;;;;4.05;1.90;;;9.30;99.90;;;;;;5030424;28;20061;-48
2021/05/05 07:17:16;;;;;;;4.05;1.88;;;9.50;99.90;;;;;;5030150;28;20079;-45
2021/05/05 07:19:42;;;;;;;4.30;2.38;;;9.70;99.90;;;;;;5029967;28;20519;-45
2021/05/05 07:22:07;;;;;;;5.30;3.10;;;9.80;99.90;;;;;;5030971;28;20509;-45
2021/05/05 07:24:33;;;;;;;5.03;2.78;;;9.80;99.90;;;;;;5030250;28;20040;-45
2021/05/05 07:26:58;;;;;;;11.20;3.17;;;9.70;99.90;;;;;;5030647;28;20498;-45
2021/05/05 07:29:25;;;;;;;5.07;2.97;;;9.70;99.90;;;;;;5030272;28;20112;-47
2021/05/05 07:31:50;;;;;;;4.35;2.78;;;9.80;99.90;;;;;;5030242;28;20040;-45
2021/05/05 07:34:16;;;;;;;5.95;2.85;;;9.70;99.90;;;;;;5029245;28;20026;-45
2021/05/05 07:36:45;;;;;;;6.22;2.42;;;9.60;99.90;;;;;;5029472;28;20034;-45
2021/05/05 07:39:26;;;;;;;7.82;2.45;;;9.60;99.90;;;;;;5029136;28;20090;-45
2021/05/05 07:42:22;;;;;;;4.38;2.38;;;9.50;99.90;;;;;;5029902;28;20092;-44
2021/05/05 07:47:29;;;;;;;9.15;2.60;;;9.40;99.90;;;;;;5029160;28;20039;-44
2021/05/05 07:49:56;;;;;;;5.20;2.30;;;9.30;99.90;;;;;;5030262;28;20018;-44
2021/05/05 07:52:22;;;;;;;7.13;2.17;;;9.30;99.90;;;;;;5030019;28;20096;-45
2021/05/05 07:54:48;;;;;;;6.82;2.33;;;9.30;99.90;;;;;;5029988;28;20108;-44
2021/05/05 07:57:14;;;;;;;7.78;2.53;;;9.20;99.90;;;;;;5028256;28;20116;-45
2021/05/05 07:59:42;;;;;;;4.47;1.65;;;9.40;99.90;;;;;;5029689;28;20021;-44
2021/05/05 08:02:07;;;;;;;8.60;2.08;;;9.70;99.90;;;;;;5028360;28;20036;-45
2021/05/05 08:04:34;;;;;;;8.02;2.33;;;9.90;99.90;;;;;;5029325;28;20026;-45
2021/05/05 08:07:00;;;;;;;4.15;1.88;;;9.80;99.20;;;;;;5028526;28;20026;-45
2021/05/05 08:09:26;;;;;;;4.38;1.92;;;9.80;99.40;;;;;;5029040;28;20108;-44
2021/05/05 08:11:52;;;;;;;8.00;1.98;;;10.10;98.90;;;;;;5029770;28;20462;-45
2021/05/05 08:14:19;;;;;;;5.90;2.67;;;9.90;98.00;;;;;;5028231;28;20116;-46
2021/05/05 08:16:45;;;;;;;5.50;1.90;;;9.60;97.30;;;;;;5029627;28;20021;-45
2021/05/05 08:19:11;;;;;;;5.45;1.75;;;9.80;97.10;;;;;;5029412;28;20431;-44
2021/05/05 08:21:36;;;;;;;6.18;1.88;;;9.90;95.60;;;;;;5028180;28;20053;-44
2021/05/05 08:24:02;;;;;;;5.35;2.13;;;9.80;96.40;;;;;;5029492;28;20052;-45
2021/05/05 08:26:30;;;;;;;7.28;2.03;;;9.80;96.60;;;;;;5029036;28;20490;-45
2021/05/05 08:28:56;;;;;;;6.57;1.70;;;9.80;95.90;;;;;;5028712;28;20026;-45
2021/05/05 08:31:21;;;;;;;5.88;1.90;;;9.80;95.00;;;;;;5029271;28;20116;-46
2021/05/05 08:33:47;;;;;;;5.97;1.85;;;9.70;96.10;;;;;;5029214;28;20112;-44
2021/05/05 08:36:12;;;;;;;8.82;1.88;;;9.80;96.90;;;;;;5028830;28;20429;-44
2021/05/05 08:38:38;;;;;;;6.40;2.65;;;9.80;97.10;;;;;;5027167;28;20113;-45
2021/05/05 08:41:05;;;;;;;6.63;1.90;;;10.00;97.50;;;;;;5028969;28;20502;-47
2021/05/05 08:43:33;;;;;;;5.60;1.77;;;10.00;95.60;;;;;;5026930;28;20036;-45
2021/05/05 08:45:59;;;;;;;6.75;2.45;;;10.20;96.20;;;;;;5028774;28;20030;-45
2021/05/05 08:48:25;;;;;;;8.68;2.80;;;10.10;97.00;;;;;;5028984;28;20026;-45
2021/05/05 08:50:50;;;;;;;7.68;1.83;;;10.10;97.20;;;;;;5030398;28;20040;-45
2021/05/05 08:53:16;;;;;;;7.75;2.42;;;10.10;97.70;;;;;;5030375;28;20028;-45
2021/05/05 08:55:41;;;;;;;5.85;2.42;;;10.10;96.90;;;;;;5029207;28;20033;-45
2021/05/05 08:58:07;;;;;;;5.10;2.67;;;10.20;95.60;;;;;;5028469;28;20392;-44
2021/05/05 09:00:38;;;;;;;9.65;2.85;;;10.70;95.30;;;;;;5029299;28;20036;-45
2021/05/05 09:03:06;;;;;;;;;;;11.00;93.90;;;;;;5026736;28;20537;-45
2021/05/05 09:05:50;;;;;;;7.45;2.50;;;11.70;91.20;;;;;;5029564;28;19931;-45
2021/05/05 09:08:15;;;;;;;5.25;2.40;;;11.80;90.00;;;;;;5027221;28;20025;-45
2021/05/05 09:10:59;;;;;;;7.25;2.13;;;11.80;88.90;;;;;;5030217;28;20560;-45
2021/05/05 09:13:44;;;;;;;12.38;2.90;;;12.10;87.20;;;;;;5030469;28;20466;-45
2021/05/05 09:16:12;;;;;;;10.35;2.53;;;11.80;87.80;;;;;;5030369;28;20028;-45
2021/05/05 09:19:13;;;;;;;8.52;2.47;;;12.20;90.70;;;;;;5029695;28;20033;-45
2021/05/05 09:21:44;;;;;;;9.48;2.22;;;12.80;85.20;;;;;;5027162;28;20026;-44
2021/05/05 09:24:13;;;;;;;;;;;14.20;77.10;;;;;;5030316;28;20030;-47
2021/05/05 09:26:39;;;;;;;6.05;2.00;;;14.40;73.50;;;;;;5030359;28;20325;-45
2021/05/05 09:29:04;;;;;;;7.97;2.00;;;15.00;70.90;;;;;;5029443;28;20029;-46
2021/05/05 09:31:34;;;;;;;7.72;2.38;;;14.90;67.30;;;;;;5026747;28;20037;-47
2021/05/05 09:34:01;;;;;;;6.60;2.13;;;16.50;61.10;;;;;;5009178;28;20526;-47
2021/05/05 09:36:26;;;;;;;6.68;2.55;;;17.00;58.50;;;;;;5008568;28;20034;-47
2021/05/05 09:38:52;;;;;;;9.10;2.42;;;16.90;55.60;;;;;;5007987;28;20379;-46
2021/05/05 09:41:27;;;;;;;6.68;2.72;;;15.60;57.40;;;;;;5008913;28;20026;-46
2021/05/05 09:43:57;;;;;;;6.57;2.25;;;15.90;55.80;;;;;;5008795;28;20067;-47
2021/05/05 09:46:46;;;;;;;8.18;2.20;;;16.70;56.80;;;;;;5008934;28;20030;-46
2021/05/05 09:49:32;;;;;;;5.05;2.13;;;16.10;53.80;;;;;;5007976;28;20495;-46
2021/05/05 09:52:12;;;;;;;5.68;2.00;;;16.50;55.50;;;;;;5008611;28;20397;-47
2021/05/05 09:54:59;;;;;;;7.82;2.40;;;16.60;54.90;;;;;;5008504;28;20492;-47
2021/05/05 09:57:28;;;;;;;10.18;2.40;;;18.50;53.70;;;;;;5008375;28;20044;-46
2021/05/05 10:00:08;;;;;;;6.22;1.85;;;17.60;51.30;;;;;;5008295;28;20490;-46
2021/05/05 10:02:44;;;;;;;5.95;1.92;;;17.80;54.30;;;;;;5008624;28;20197;-47
2021/05/05 10:05:19;;;;;;;8.70;2.00;;;17.90;52.90;;;;;;5008321;28;20026;-47
2021/05/05 10:07:57;;;;;;;9.25;2.05;;;18.50;50.50;;;;;;5011913;28;20246;-47
2021/05/05 10:10:28;;;;;;;8.40;2.60;;;18.60;49.00;;;;;;5012617;28;20534;-49
2021/05/05 10:12:56;;;;;;;5.38;2.10;;;19.20;47.40;;;;;;5020593;28;20395;-48
2021/05/05 10:15:21;;;;;;;6.10;2.15;;;19.50;46.70;;;;;;5032400;28;20494;-48
2021/05/05 10:17:52;;;;;;;8.98;2.45;;;19.40;47.30;;;;;;5031724;28;20029;-47
2021/05/05 10:20:25;;;;;;;5.05;1.85;;;18.60;45.90;;;;;;5031360;28;20049;-46
2021/05/05 10:22:54;;;;;;;7.18;2.40;;;16.90;50.20;;;;;;5030519;28;20060;-46
2021/05/05 10:25:20;;;;;;;9.65;2.58;;;16.40;52.40;;;;;;5032118;28;20021;-46
2021/05/05 10:27:45;;;;;;;8.98;1.83;;;15.70;54.80;;;;;;5031124;28;20034;-46
2021/05/05 10:30:14;;;;;;;8.15;2.28;;;16.30;53.50;;;;;;5031052;28;20044;-46
2021/05/05 10:32:42;;;;;;;6.90;2.15;;;15.80;56.50;;;;;;5026573;28;20032;-46
2021/05/05 10:35:09;;;;;;;7.22;2.20;;;15.40;56.80;;;;;;5031711;28;20104;-46
2021/05/05 10:37:43;;;;;;;7.10;1.90;;;15.80;58.30;;;;;;5031094;28;20396;-47
2021/05/05 10:40:21;;;;;;;6.72;2.00;;;16.80;56.90;;;;;;5031231;28;20021;-47
2021/05/05 10:43:00;;;;;;;4.85;1.63;;;17.50;55.00;;;;;;5031436;28;20093;-46
2021/05/05 10:45:31;;;;;;;6.53;1.85;;;18.80;54.30;;;;;;5031556;28;20041;-47
2021/05/05 10:48:03;;;;;;;6.22;2.30;;;19.20;51.50;;;;;;5031435;28;20079;-49
2021/05/05 10:50:29;;;;;;;5.20;1.98;;;19.80;53.10;;;;;;5028463;28;20053;-46
2021/05/05 10:52:56;;;;;;;5.53;2.10;;;19.80;48.30;;;;;;5031036;28;20138;-46
2021/05/05 10:55:48;;;;;;;6.28;2.17;;;19.40;49.00;;;;;;5031152;28;20053;-46
2021/05/05 10:58:16;;;;;;;8.52;2.15;;;17.60;51.10;;;;;;5032023;28;20025;-47
2021/05/05 11:00:49;;;;;;;4.65;1.50;;;16.30;53.10;;;;;;5031460;28;20029;-47
2021/05/05 11:03:38;;;;;;;4.65;2.00;;;16.20;52.30;;;;;;5026327;28;20014;-48
2021/05/05 11:06:23;;;;;;;4.95;1.45;;;16.80;52.90;;;;;;5030212;28;20033;-47
2021/05/05 11:08:49;;;;;;;4.82;2.50;;;18.20;51.40;;;;;;5032013;28;20041;-47
2021/05/05 11:11:34;;;;;;;4.82;2.28;;;17.70;50.40;;;;;;5032040;28;20040;-46
2021/05/05 11:13:59;;;;;;;8.60;2.50;;;19.00;48.80;;;;;;5030964;28;20048;-46
2021/05/05 11:17:06;;;;;;;3.35;1.83;;;19.50;47.60;;;;;;5030560;28;20026;-46
2021/05/05 11:19:37;;;;;;;7.88;2.60;;;18.00;48.30;;;;;;5030320;28;20260;-47
2021/05/05 11:22:04;;;;;;;4.78;2.15;;;17.30;49.80;;;;;;5029122;28;20390;-46
2021/05/05 11:24:32;;;;;;;5.43;2.05;;;17.20;50.30;;;;;;5030524;28;20038;-45
2021/05/05 11:26:59;;;;;;;6.93;2.25;;;16.00;53.10;;;;;;5030452;28;20032;-47
2021/05/05 11:29:50;;;;;;;4.47;2.40;;;15.30;57.40;;;;;;5029808;28;20048;-46
2021/05/05 11:32:18;;;;;;;7.20;2.30;;;15.00;56.90;;;;;;5028930;28;20041;-47
2021/05/05 11:34:46;;;;;;;6.30;2.05;;;16.00;55.30;;;;;;5030270;28;20030;-46
2021/05/05 11:37:20;;;;;;;7.40;2.30;;;15.60;54.00;;;;;;5028646;28;20022;-46
2021/05/05 11:39:50;;;;;;;8.57;2.35;;;14.80;56.00;;;;;;5028695;28;20021;-46
2021/05/05 11:42:33;;;;;;;6.37;2.70;;;14.30;56.80;;;;;;5030320;28;20022;-46
2021/05/05 11:45:01;;;;;;;6.93;2.35;;;13.80;57.50;;;;;;5030345;28;20014;-46
2021/05/05 11:47:32;;;;;;;6.28;2.00;;;14.60;58.60;;;;;;5029479;28;20030;-48
2021/05/05 11:50:00;;;;;;;;;;;14.80;54.70;;;;;;5029317;28;20063;-46
2021/05/05 11:52:36;;;;;;;8.05;2.33;;;16.10;53.30;;;;;;5029677;28;19905;-49
2021/05/05 11:55:16;;;;;;;6.25;2.17;;;16.00;53.60;;;;;;5029955;28;20017;-47
2021/05/05 11:57:44;;;;;;;6.53;2.08;;;16.40;53.00;;;;;;5029421;28;20080;-46
2021/05/05 12:00:12;;;;;;;5.05;2.20;;;16.30;53.00;;;;;;5028530;28;20450;-47
2021/05/05 12:02:58;;;;;;;7.85;2.13;;;17.00;53.00;;;;;;5029560;28;20034;-46
2021/05/05 12:05:36;;;;;;;5.43;2.10;;;17.00;51.70;;;;;;5030049;28;20026;-47
2021/05/05 12:08:10;;;;;;;4.35;2.47;;;16.20;51.20;;;;;;5029122;28;20024;-48
2021/05/05 12:10:41;;;;;;;3.03;1.85;;;15.90;54.10;;;;;;5029754;28;20461;-46
2021/05/05 12:13:13;;;;;;;8.23;1.98;;;16.20;53.30;;;;;;5031073;28;20110;-46
2021/05/05 12:15:42;;;;;;;8.38;2.50;;;16.10;54.50;;;;;;5031312;28;20036;-46
2021/05/05 12:18:21;;;;;;;5.53;1.80;;;15.50;54.00;;;;;;5030651;28;20025;-48
2021/05/05 12:20:48;;;;;;;4.10;2.17;;;14.60;54.40;;;;;;5025779;28;20475;-49
2021/05/05 12:23:14;;;;;;;5.20;2.10;;;14.10;57.50;;;;;;5030998;28;20383;-46
2021/05/05 12:25:40;;;;;;;5.93;2.17;;;13.80;59.30;;;;;;5031327;28;20029;-46
2021/05/05 12:28:17;;;;;;;7.38;2.58;;;14.40;58.20;;;;;;5029730;28;20037;-47
2021/05/05 12:30:49;;;;;;;10.23;2.33;;;14.60;58.80;;;;;;5030826;28;20055;-48
2021/05/05 12:33:17;;;;;;;8.70;2.08;;;14.70;58.20;;;;;;5012284;28;20036;-46
2021/05/05 12:35:43;;;;;;;6.28;1.80;;;14.10;57.60;;;;;;5008272;28;20041;-48
2021/05/05 12:38:12;;;;;;;6.25;1.65;;;13.80;59.90;;;;;;5007563;28;20406;-45
2021/05/05 12:40:40;;;;;;;3.58;1.60;;;13.20;59.70;;;;;;5010263;28;20503;-46
2021/05/05 12:43:25;;;;;;;8.82;2.17;;;13.20;60.50;;;;;;5019417;28;20029;-46
2021/05/05 12:45:53;;;;;;;6.53;1.70;;;13.20;61.30;;;;;;5028297;28;20097;-46
2021/05/05 12:48:44;;;;;;;9.23;2.10;;;12.90;61.50;;;;;;5029331;28;20034;-47
2021/05/05 12:51:20;;;;;;;4.75;1.65;;;13.50;62.00;;;;;;5027410;28;20025;-46
2021/05/05 12:53:48;;;;;;;4.72;1.73;;;13.60;61.70;;;;;;5030408;28;20467;-46
2021/05/05 12:56:16;;;;;;;10.05;2.08;;;13.80;60.80;;;;;;5030298;28;20021;-48
2021/05/05 12:58:43;;;;;;;8.60;1.90;;;13.40;63.60;;;;;;5029561;28;20080;-48
2021/05/05 13:01:11;;;;;;;5.88;1.98;;;12.90;63.80;;;;;;5027762;28;20156;-46